Time;durP1;ratioP1;P1;durP2;ratioP2;P2;SDS_P1;SDS_P2;PMS_P1;PMS_P2;Temp;Humidity;BMP_temperature;BMP_pressure;BME280_temperature;BME280_humidity;BME280_pressure;Samples;Min_cycle;Max_cycle;Signal;HPM_P1;HPM_P2
2021/03/23 00:01:08;;;;;;;40.58;23.60;;;5.30;80.50;;;;;;5000077;28;20022;-72
2021/03/23 00:03:43;;;;;;;36.80;21.67;;;5.20;80.50;;;;;;5007760;28;20069;-72
2021/03/23 00:06:11;;;;;;;36.75;21.73;;;5.20;80.60;;;;;;5000891;28;20419;-72
2021/03/23 00:08:42;;;;;;;34.33;21.77;;;5.20;80.70;;;;;;5004202;28;20036;-72
2021/03/23 00:11:26;;;;;;;38.92;21.92;;;5.10;80.80;;;;;;5018594;28;20037;-73
2021/03/23 00:13:53;;;;;;;38.47;22.45;;;5.10;80.80;;;;;;5002617;28;20036;-72
2021/03/23 00:16:23;;;;;;;36.10;22.60;;;5.10;80.90;;;;;;5001942;28;20489;-71
2021/03/23 00:18:49;;;;;;;32.42;22.23;;;5.10;80.90;;;;;;4999635;28;20435;-72
2021/03/23 00:21:16;;;;;;;36.42;23.20;;;5.10;80.90;;;;;;5002619;28;20412;-72
2021/03/23 00:23:43;;;;;;;35.30;22.25;;;5.00;81.10;;;;;;4998099;28;20042;-72
2021/03/23 00:26:10;;;;;;;41.47;25.25;;;5.00;81.30;;;;;;5005545;28;20030;-72
2021/03/23 00:28:36;;;;;;;39.92;23.88;;;5.00;81.50;;;;;;4999804;28;20378;-74
2021/03/23 00:31:02;;;;;;;40.20;23.63;;;5.00;81.40;;;;;;4995858;28;20042;-73
2021/03/23 00:33:28;;;;;;;38.03;24.75;;;5.00;81.50;;;;;;5002558;28;20025;-72
2021/03/23 00:36:01;;;;;;;37.60;23.02;;;4.90;81.50;;;;;;5003917;28;20026;-72
2021/03/23 00:38:30;;;;;;;36.25;22.65;;;4.90;81.60;;;;;;5004766;28;20033;-73
2021/03/23 00:40:56;;;;;;;37.15;23.23;;;4.90;81.60;;;;;;5005752;28;20378;-72
2021/03/23 00:43:23;;;;;;;41.65;23.98;;;4.90;81.60;;;;;;5007443;28;20026;-72
2021/03/23 00:45:48;;;;;;;36.30;23.08;;;4.80;81.70;;;;;;5005822;28;20072;-72
2021/03/23 00:48:17;;;;;;;40.00;23.52;;;4.80;81.80;;;;;;5000769;28;20077;-72
2021/03/23 00:50:42;;;;;;;38.17;24.27;;;4.80;81.80;;;;;;5001528;28;20528;-72
2021/03/23 00:53:08;;;;;;;36.53;24.08;;;4.80;81.80;;;;;;4997661;28;20034;-72
2021/03/23 00:55:34;;;;;;;40.20;23.35;;;4.70;81.90;;;;;;5003877;28;20044;-72
2021/03/23 00:58:00;;;;;;;38.55;23.17;;;4.70;81.90;;;;;;5005037;28;20027;-72
2021/03/23 01:00:26;;;;;;;40.90;24.15;;;4.70;81.90;;;;;;5009278;28;20057;-73
2021/03/23 01:02:52;;;;;;;37.00;23.02;;;4.60;82.00;;;;;;5006119;28;20045;-72
2021/03/23 01:05:21;;;;;;;45.85;25.27;;;4.60;82.10;;;;;;5000824;28;20040;-72
2021/03/23 01:07:46;;;;;;;43.17;25.52;;;4.60;82.00;;;;;;5005421;28;20053;-71
2021/03/23 01:10:15;;;;;;;41.55;24.83;;;4.60;82.20;;;;;;5001760;28;20489;-73
2021/03/23 01:12:41;;;;;;;39.50;25.33;;;4.60;82.30;;;;;;5005101;28;20465;-72
2021/03/23 01:15:10;;;;;;;35.22;24.35;;;4.50;82.30;;;;;;5011112;28;20030;-73
2021/03/23 01:17:35;;;;;;;37.85;24.15;;;4.50;82.30;;;;;;5010283;28;20026;-73
2021/03/23 01:20:03;;;;;;;41.47;25.70;;;4.50;82.40;;;;;;5009762;28;20057;-72
2021/03/23 01:22:28;;;;;;;37.85;24.67;;;4.50;82.50;;;;;;5007017;28;20034;-73
2021/03/23 01:24:54;;;;;;;39.05;25.08;;;4.50;82.70;;;;;;5002438;28;20053;-75
2021/03/23 01:27:19;;;;;;;45.58;26.05;;;4.50;82.60;;;;;;4998068;28;20489;-72
2021/03/23 01:29:45;;;;;;;41.40;26.00;;;4.50;82.60;;;;;;5006520;28;20046;-73
2021/03/23 01:32:11;;;;;;;45.88;27.42;;;4.40;82.90;;;;;;5010398;28;20026;-72
2021/03/23 01:34:36;;;;;;;40.00;25.58;;;4.50;83.10;;;;;;4999963;28;20123;-73
2021/03/23 01:37:02;;;;;;;44.80;27.00;;;4.50;83.10;;;;;;5000457;28;20499;-72
2021/03/23 01:39:28;;;;;;;42.25;26.45;;;4.50;83.20;;;;;;5013272;28;20049;-72
2021/03/23 01:41:53;;;;;;;44.20;26.27;;;4.50;83.30;;;;;;5006052;28;20026;-72
2021/03/23 01:44:19;;;;;;;45.15;26.88;;;4.50;83.50;;;;;;5000893;28;20069;-72
2021/03/23 01:46:49;;;;;;;41.55;26.33;;;4.50;83.60;;;;;;5007214;28;20041;-73
2021/03/23 01:49:22;;;;;;;45.28;26.80;;;4.50;83.60;;;;;;4998118;28;20038;-72
2021/03/23 01:52:01;;;;;;;44.78;27.95;;;4.50;83.70;;;;;;5006959;28;20440;-72
2021/03/23 01:54:34;;;;;;;48.88;27.20;;;4.50;84.00;;;;;;4997848;28;20112;-72
2021/03/23 01:57:04;;;;;;;45.47;27.73;;;4.50;84.00;;;;;;5019961;28;20053;-73
2021/03/23 01:59:32;;;;;;;41.60;28.73;;;4.50;84.10;;;;;;5000168;28;20033;-72
2021/03/23 02:02:01;;;;;;;44.42;28.25;;;4.40;84.10;;;;;;5007210;28;20030;-72
2021/03/23 02:04:27;;;;;;;47.15;28.73;;;4.40;84.20;;;;;;4993706;28;20030;-72
2021/03/23 02:06:53;;;;;;;44.55;27.27;;;4.40;84.20;;;;;;5001735;28;20030;-73
2021/03/23 02:09:24;;;;;;;44.25;28.05;;;4.40;84.10;;;;;;5002105;28;20036;-72
2021/03/23 02:11:58;;;;;;;48.55;29.05;;;4.40;84.20;;;;;;5008661;28;20477;-72
2021/03/23 02:14:29;;;;;;;44.10;29.30;;;4.40;84.30;;;;;;4998893;28;20033;-72
2021/03/23 02:17:12;;;;;;;43.80;27.38;;;4.40;84.30;;;;;;5006775;28;20029;-73
2021/03/23 02:19:37;;;;;;;44.50;27.15;;;4.40;84.30;;;;;;5000351;28;20039;-72
2021/03/23 02:22:03;;;;;;;47.90;28.60;;;4.30;84.40;;;;;;5000974;28;20040;-73
2021/03/23 02:24:29;;;;;;;49.58;29.23;;;4.30;84.40;;;;;;5005986;28;20067;-73
2021/03/23 02:26:55;;;;;;;46.42;27.80;;;4.30;84.50;;;;;;5007218;28;20461;-72
2021/03/23 02:29:21;;;;;;;45.03;28.27;;;4.30;84.40;;;;;;5005084;28;21669;-72
2021/03/23 02:31:53;;;;;;;48.03;29.17;;;4.20;84.80;;;;;;5007042;28;20041;-73
2021/03/23 02:34:23;;;;;;;49.58;29.35;;;4.20;85.00;;;;;;5004059;28;20528;-72
2021/03/23 02:36:50;;;;;;;47.30;29.42;;;4.20;85.10;;;;;;5003047;28;20034;-74
2021/03/23 02:39:28;;;;;;;49.17;29.23;;;4.20;85.20;;;;;;5004360;28;20030;-72
2021/03/23 02:41:56;;;;;;;49.88;29.52;;;4.20;85.20;;;;;;5005821;28;20381;-73
2021/03/23 02:44:22;;;;;;;49.10;29.30;;;4.20;85.20;;;;;;5000849;28;20537;-72
2021/03/23 02:46:47;;;;;;;45.20;28.20;;;4.10;85.40;;;;;;5007806;28;20044;-72
2021/03/23 02:49:14;;;;;;;50.10;28.67;;;4.20;85.50;;;;;;5004800;28;20685;-72
2021/03/23 02:51:40;;;;;;;49.80;29.85;;;4.20;85.50;;;;;;5008718;28;20194;-72
2021/03/23 02:54:06;;;;;;;49.53;29.45;;;4.10;85.50;;;;;;4998447;28;20030;-72
2021/03/23 02:56:32;;;;;;;47.80;29.83;;;4.10;85.60;;;;;;5005614;28;20069;-73
2021/03/23 02:58:57;;;;;;;49.33;30.52;;;4.10;85.70;;;;;;5003438;28;20076;-73
2021/03/23 03:01:23;;;;;;;44.15;29.48;;;4.10;85.80;;;;;;4998643;28;20092;-72
2021/03/23 03:03:49;;;;;;;53.17;30.02;;;4.10;85.80;;;;;;5005512;28;20036;-72
2021/03/23 03:06:15;;;;;;;50.35;30.95;;;4.10;85.90;;;;;;5001486;28;20029;-73
2021/03/23 03:08:40;;;;;;;47.40;29.60;;;4.10;85.90;;;;;;5004750;28;20094;-72
2021/03/23 03:11:07;;;;;;;53.45;29.85;;;4.10;85.80;;;;;;4999427;28;20129;-74
2021/03/23 03:13:34;;;;;;;47.28;29.55;;;4.10;85.90;;;;;;5002551;28;20125;-72
2021/03/23 03:16:00;;;;;;;49.65;30.25;;;4.00;86.00;;;;;;5005918;28;20403;-72
2021/03/23 03:18:27;;;;;;;50.25;31.15;;;4.00;86.10;;;;;;5003778;28;20030;-73
2021/03/23 03:20:55;;;;;;;44.17;29.20;;;4.00;86.20;;;;;;5007437;28;20041;-73
2021/03/23 03:23:21;;;;;;;53.25;30.63;;;4.00;86.10;;;;;;5001589;28;20033;-72
2021/03/23 03:25:48;;;;;;;48.15;27.98;;;4.00;86.10;;;;;;4999731;28;20065;-72
2021/03/23 03:28:14;;;;;;;50.13;29.80;;;4.00;86.20;;;;;;5001925;28;20026;-73
2021/03/23 03:30:41;;;;;;;49.47;29.75;;;4.00;86.30;;;;;;4999649;28;20129;-72
2021/03/23 03:33:10;;;;;;;53.97;30.25;;;4.00;86.20;;;;;;5000709;28;20122;-73
2021/03/23 03:35:38;;;;;;;49.65;31.05;;;4.00;86.30;;;;;;4999635;28;20040;-72
2021/03/23 03:38:05;;;;;;;55.58;30.52;;;3.90;86.30;;;;;;4995521;28;20413;-73
2021/03/23 03:40:38;;;;;;;50.05;28.70;;;3.90;86.40;;;;;;5002413;28;20053;-72
2021/03/23 03:43:06;;;;;;;48.97;29.63;;;3.90;86.50;;;;;;5003929;28;20046;-72
2021/03/23 03:45:31;;;;;;;50.00;29.45;;;3.90;86.40;;;;;;4997019;28;20034;-73
2021/03/23 03:47:57;;;;;;;48.95;29.50;;;3.80;86.40;;;;;;5000188;28;20038;-74
2021/03/23 03:50:26;;;;;;;52.05;30.40;;;3.90;86.40;;;;;;4999593;28;20038;-72
2021/03/23 03:52:52;;;;;;;47.88;30.10;;;3.90;86.40;;;;;;4997880;28;20034;-72
2021/03/23 03:55:21;;;;;;;54.88;29.75;;;3.90;86.30;;;;;;4999998;28;20057;-72
2021/03/23 03:57:47;;;;;;;49.63;29.92;;;3.90;86.50;;;;;;4999220;28;20030;-74
2021/03/23 04:00:16;;;;;;;53.53;29.77;;;3.80;86.50;;;;;;5001568;28;20033;-72
2021/03/23 04:02:42;;;;;;;48.35;30.80;;;3.80;86.60;;;;;;4994965;28;20339;-74
2021/03/23 04:05:16;;;;;;;53.05;30.58;;;3.80;86.60;;;;;;5006168;28;20049;-72
2021/03/23 04:07:42;;;;;;;51.90;30.73;;;3.80;86.60;;;;;;4998837;28;20742;-72
2021/03/23 04:10:08;;;;;;;48.47;29.60;;;3.70;86.70;;;;;;5001351;28;20030;-73
2021/03/23 04:12:34;;;;;;;47.70;30.15;;;3.70;86.60;;;;;;5005733;28;20026;-73
2021/03/23 04:14:59;;;;;;;47.17;30.13;;;3.70;86.60;;;;;;5001280;28;20026;-73
2021/03/23 04:17:25;;;;;;;51.92;31.60;;;3.60;86.70;;;;;;5007090;28;20060;-72
2021/03/23 04:19:51;;;;;;;48.83;30.45;;;3.60;86.90;;;;;;5003883;28;20535;-74
2021/03/23 04:22:16;;;;;;;51.33;31.10;;;3.60;87.00;;;;;;4999981;28;20034;-72
2021/03/23 04:24:42;;;;;;;53.83;29.98;;;3.60;87.10;;;;;;5004561;28;20026;-73
2021/03/23 04:27:08;;;;;;;47.83;30.15;;;3.60;87.20;;;;;;5007326;28;20034;-72
2021/03/23 04:29:33;;;;;;;52.92;31.08;;;3.60;87.20;;;;;;5006045;28;20128;-71
2021/03/23 04:31:59;;;;;;;50.58;30.77;;;3.60;87.10;;;;;;5007216;28;21871;-74
2021/03/23 04:34:24;;;;;;;55.30;30.25;;;3.60;87.10;;;;;;4997159;28;20030;-72
2021/03/23 04:36:50;;;;;;;53.03;31.45;;;3.60;87.20;;;;;;5002171;28;20120;-72
2021/03/23 04:39:16;;;;;;;49.40;29.73;;;3.60;87.30;;;;;;5005782;28;20053;-72
2021/03/23 04:41:41;;;;;;;53.33;30.00;;;3.60;87.30;;;;;;5002740;28;20038;-74
2021/03/23 04:44:07;;;;;;;52.75;30.77;;;3.60;87.20;;;;;;5013836;28;20049;-73
2021/03/23 04:46:33;;;;;;;53.50;31.65;;;3.50;87.30;;;;;;5003489;28;20036;-72
2021/03/23 04:48:59;;;;;;;54.13;31.80;;;3.60;87.50;;;;;;5003402;28;20030;-71
2021/03/23 04:51:28;;;;;;;62.13;33.35;;;3.50;87.60;;;;;;5002575;28;20111;-72
2021/03/23 04:54:12;;;;;;;58.47;34.45;;;3.50;87.70;;;;;;5014848;28;20027;-73
2021/03/23 04:56:41;;;;;;;53.42;30.70;;;3.50;87.80;;;;;;5006531;28;20026;-73
2021/03/23 04:59:08;;;;;;;52.15;31.55;;;3.50;87.80;;;;;;5001621;28;20136;-73
2021/03/23 05:01:34;;;;;;;55.25;32.40;;;3.50;87.90;;;;;;5002136;28;20549;-73
2021/03/23 05:04:05;;;;;;;56.03;31.08;;;3.50;87.90;;;;;;5007372;28;20047;-73
2021/03/23 05:06:31;;;;;;;52.92;30.35;;;3.40;87.90;;;;;;5001507;28;20424;-73
2021/03/23 05:08:58;;;;;;;54.92;31.23;;;3.50;88.00;;;;;;5005577;28;20034;-73
2021/03/23 05:11:26;;;;;;;60.08;32.25;;;3.50;87.90;;;;;;4999903;28;20121;-73
2021/03/23 05:13:52;;;;;;;57.00;31.75;;;3.50;87.90;;;;;;5005452;28;20050;-73
2021/03/23 05:16:18;;;;;;;54.03;30.65;;;3.40;88.00;;;;;;5010795;28;20038;-74
2021/03/23 05:18:44;;;;;;;54.22;32.13;;;3.40;88.20;;;;;;5005803;28;20034;-74
2021/03/23 05:21:10;;;;;;;56.28;32.67;;;3.50;88.30;;;;;;4998670;28;20072;-73
2021/03/23 05:23:37;;;;;;;53.08;29.58;;;3.50;88.30;;;;;;5007764;28;20046;-75
2021/03/23 05:26:03;;;;;;;56.33;30.55;;;3.40;88.20;;;;;;5005558;28;20112;-73
2021/03/23 05:28:29;;;;;;;55.90;32.05;;;3.40;88.10;;;;;;5001312;28;20104;-74
2021/03/23 05:30:56;;;;;;;51.72;31.30;;;3.40;88.20;;;;;;5008112;28;20454;-73
2021/03/23 05:33:22;;;;;;;57.90;32.13;;;3.40;88.20;;;;;;5003689;28;20040;-72
2021/03/23 05:35:52;;;;;;;53.08;30.67;;;3.40;88.20;;;;;;5001973;28;20104;-73
2021/03/23 05:38:19;;;;;;;55.28;29.83;;;3.40;88.20;;;;;;5003395;28;20401;-73
2021/03/23 05:40:52;;;;;;;52.55;29.17;;;3.40;88.20;;;;;;4999441;28;20493;-75
2021/03/23 05:43:30;;;;;;;56.80;30.42;;;3.40;88.20;;;;;;4997222;28;20069;-75
2021/03/23 05:46:46;;;;;;;54.00;31.30;;;3.40;88.20;;;;;;5005291;28;20057;-73
2021/03/23 05:49:24;;;;;;;54.15;31.02;;;3.40;88.30;;;;;;4990363;28;20401;-73
2021/03/23 05:51:57;;;;;;;48.65;29.95;;;3.40;88.30;;;;;;5004098;28;20041;-73
2021/03/23 05:54:36;;;;;;;51.35;31.48;;;3.50;88.20;;;;;;5004142;28;20048;-72
2021/03/23 05:57:11;;;;;;;56.08;31.30;;;3.50;88.10;;;;;;5004863;28;20030;-73
2021/03/23 05:59:53;;;;;;;57.95;30.00;;;3.50;88.00;;;;;;5004867;28;20034;-72
2021/03/23 06:02:24;;;;;;;55.63;32.30;;;3.50;87.80;;;;;;5001403;28;20050;-72
2021/03/23 06:05:28;;;;;;;57.17;30.15;;;3.60;87.70;;;;;;5008339;28;20044;-71
2021/03/23 06:07:54;;;;;;;49.05;28.83;;;3.60;87.80;;;;;;5003507;28;20038;-72
2021/03/23 06:10:21;;;;;;;51.38;28.92;;;3.70;87.60;;;;;;5003253;28;20996;-73
2021/03/23 06:13:14;;;;;;;52.78;30.70;;;3.60;87.60;;;;;;4999788;28;20043;-73
2021/03/23 06:15:50;;;;;;;50.15;29.40;;;3.70;87.50;;;;;;5005172;28;20618;-73
2021/03/23 06:18:39;;;;;;;53.03;31.60;;;3.80;87.40;;;;;;4998563;28;20038;-75
2021/03/23 06:21:20;;;;;;;50.20;30.50;;;3.80;87.10;;;;;;4999950;28;20045;-73
2021/03/23 06:23:51;;;;;;;52.22;30.77;;;3.90;87.00;;;;;;5000311;28;20038;-72
2021/03/23 06:26:43;;;;;;;53.15;30.35;;;3.90;86.90;;;;;;5005736;28;20038;-72
2021/03/23 06:29:42;;;;;;;45.38;30.27;;;4.00;86.60;;;;;;5005333;28;20026;-72
2021/03/23 06:32:29;;;;;;;49.03;27.48;;;4.10;86.50;;;;;;4998432;28;20381;-72
2021/03/23 06:34:57;;;;;;;48.33;27.75;;;4.10;86.20;;;;;;4999407;28;20462;-69
2021/03/23 06:37:27;;;;;;;47.60;28.60;;;4.20;86.20;;;;;;4995283;28;20037;-70
2021/03/23 06:39:53;;;;;;;53.28;30.15;;;4.20;86.10;;;;;;5010229;28;20492;-69
2021/03/23 06:42:39;;;;;;;52.97;30.08;;;4.60;86.50;;;;;;5002543;28;20022;-69
2021/03/23 06:45:25;;;;;;;45.90;27.30;;;5.30;84.60;;;;;;4999975;28;20050;-70
2021/03/23 06:47:51;;;;;;;48.25;26.42;;;6.10;81.30;;;;;;5002959;28;20102;-69
2021/03/23 06:50:23;;;;;;;42.45;25.42;;;6.60;79.10;;;;;;5004464;28;20045;-69
2021/03/23 06:53:15;;;;;;;40.22;23.02;;;7.00;77.20;;;;;;5004523;28;20029;-70
2021/03/23 06:55:45;;;;;;;39.45;24.98;;;7.40;75.60;;;;;;5002479;28;20072;-69
2021/03/23 06:58:34;;;;;;;44.83;24.48;;;7.30;74.60;;;;;;5001047;28;20476;-69
2021/03/23 07:01:20;;;;;;;44.13;27.02;;;7.10;75.40;;;;;;5000320;28;20030;-69
2021/03/23 07:04:13;;;;;;;45.60;26.40;;;6.70;76.30;;;;;;5002883;28;20038;-71
2021/03/23 07:06:39;;;;;;;42.83;26.52;;;6.30;78.30;;;;;;4996715;28;20112;-69
2021/03/23 07:09:07;;;;;;;40.58;26.45;;;6.10;79.20;;;;;;5001280;28;20140;-69
2021/03/23 07:11:59;;;;;;;43.90;26.25;;;6.00;80.00;;;;;;4999676;28;20121;-69
2021/03/23 07:14:46;;;;;;;46.08;27.10;;;5.90;80.60;;;;;;4996794;28;20450;-70
2021/03/23 07:17:12;;;;;;;46.25;26.85;;;5.90;80.90;;;;;;4997643;28;20048;-68
2021/03/23 07:19:57;;;;;;;45.05;25.73;;;5.90;81.10;;;;;;5003122;28;20069;-74
2021/03/23 07:22:43;;;;;;;43.70;25.98;;;6.00;81.20;;;;;;5000888;28;20026;-73
2021/03/23 07:25:38;;;;;;;45.42;26.50;;;6.10;81.20;;;;;;4997604;28;20193;-71
2021/03/23 07:28:35;;;;;;;42.50;24.17;;;6.10;80.80;;;;;;4995368;28;20041;-71
2021/03/23 07:31:10;;;;;;;44.35;25.02;;;6.20;81.00;;;;;;5002414;28;20477;-72
2021/03/23 07:34:05;;;;;;;40.40;24.05;;;6.20;80.90;;;;;;4999959;28;20058;-70
2021/03/23 07:36:42;;;;;;;45.77;24.93;;;6.40;80.90;;;;;;4997379;28;20033;-73
2021/03/23 07:39:32;;;;;;;44.90;25.60;;;6.50;80.80;;;;;;5000510;28;20041;-71
2021/03/23 07:42:02;;;;;;;39.85;23.90;;;6.60;80.40;;;;;;4993370;28;20031;-73
2021/03/23 07:44:40;;;;;;;42.35;23.85;;;6.80;80.00;;;;;;4999341;28;20076;-73
2021/03/23 07:47:23;;;;;;;36.92;22.88;;;6.90;79.50;;;;;;5000856;28;20032;-73
2021/03/23 07:50:34;;;;;;;38.58;23.23;;;7.10;79.00;;;;;;5000414;28;20050;-71
2021/03/23 07:53:12;;;;;;;38.38;23.10;;;7.30;78.30;;;;;;4993211;28;20038;-74
2021/03/23 07:55:38;;;;;;;40.28;22.25;;;7.50;77.60;;;;;;4993505;28;20421;-73
2021/03/23 07:58:19;;;;;;;39.38;22.60;;;7.70;77.10;;;;;;4987512;28;20045;-74
2021/03/23 08:00:53;;;;;;;39.67;22.73;;;7.80;76.40;;;;;;4992842;28;20053;-76
2021/03/23 08:03:42;;;;;;;34.83;22.17;;;8.10;76.00;;;;;;4991674;28;20125;-72
2021/03/23 08:06:20;;;;;;;39.38;21.55;;;8.30;75.70;;;;;;4991573;28;20373;-73
2021/03/23 08:09:10;;;;;;;33.72;22.20;;;8.50;75.20;;;;;;4996158;28;20029;-75
2021/03/23 08:11:57;;;;;;;35.63;22.63;;;8.70;73.90;;;;;;4991062;28;20483;-74
2021/03/23 08:14:31;;;;;;;32.13;20.67;;;8.90;72.80;;;;;;4994371;28;20033;-72
2021/03/23 08:17:14;;;;;;;38.23;21.27;;;9.10;72.40;;;;;;4991559;28;20111;-72
2021/03/23 08:19:43;;;;;;;36.78;21.63;;;9.30;71.30;;;;;;4990481;28;20373;-73
2021/03/23 08:22:53;;;;;;;36.78;21.88;;;9.50;70.50;;;;;;4994311;28;20370;-71
2021/03/23 08:25:47;;;;;;;34.60;20.73;;;9.60;70.40;;;;;;5001545;28;20404;-72
2021/03/23 08:28:25;;;;;;;37.33;21.27;;;9.80;69.50;;;;;;5001168;28;20466;-72
2021/03/23 08:31:16;;;;;;;33.92;20.75;;;9.80;69.80;;;;;;4999365;28;20802;-73
2021/03/23 08:33:51;;;;;;;33.72;20.13;;;9.90;68.80;;;;;;5001979;28;20037;-73
2021/03/23 08:36:35;;;;;;;35.08;21.02;;;10.00;68.80;;;;;;4998884;28;20096;-70
2021/03/23 08:39:29;;;;;;;35.58;21.50;;;10.10;66.90;;;;;;4996470;28;20034;-72
2021/03/23 08:42:10;;;;;;;41.47;22.35;;;10.30;67.10;;;;;;4994634;28;20044;-73
2021/03/23 08:44:40;;;;;;;48.40;23.63;;;10.20;67.30;;;;;;5002123;28;20407;-72
2021/03/23 08:47:38;;;;;;;59.83;25.50;;;10.30;66.90;;;;;;4999530;28;20366;-72
2021/03/23 08:50:14;;;;;;;48.47;23.25;;;10.50;67.10;;;;;;4996354;28;20108;-71
2021/03/23 08:52:43;;;;;;;38.80;22.67;;;10.80;66.10;;;;;;5002063;28;20053;-71
2021/03/23 08:55:27;;;;;;;44.80;22.63;;;10.70;65.10;;;;;;5003211;28;20374;-72
2021/03/23 08:58:04;;;;;;;50.58;22.50;;;10.80;63.80;;;;;;5001874;28;20092;-72
2021/03/23 09:00:36;;;;;;;44.00;22.67;;;10.80;63.60;;;;;;5004230;28;20374;-71
2021/03/23 09:03:42;;;;;;;51.17;22.35;;;11.00;63.40;;;;;;5000676;28;20030;-74
2021/03/23 09:06:11;;;;;;;36.03;21.35;;;11.10;62.60;;;;;;5005445;28;20523;-73
2021/03/23 09:08:40;;;;;;;30.80;18.85;;;11.20;62.70;;;;;;4998023;28;20033;-75
2021/03/23 09:11:15;;;;;;;31.50;19.02;;;11.20;63.00;;;;;;5000166;28;20037;-74
2021/03/23 09:13:41;;;;;;;32.65;17.23;;;11.30;62.70;;;;;;5004991;28;20038;-71
2021/03/23 09:16:12;;;;;;;28.58;16.55;;;11.30;61.70;;;;;;5003915;28;20057;-71
2021/03/23 09:19:01;;;;;;;28.02;17.13;;;11.30;62.30;;;;;;4998069;28;20462;-70
2021/03/23 09:21:55;;;;;;;23.30;15.95;;;11.30;62.10;;;;;;5004140;28;20133;-71
2021/03/23 09:24:33;;;;;;;26.95;16.95;;;11.40;62.00;;;;;;5002747;28;20046;-71
2021/03/23 09:26:59;;;;;;;27.27;16.60;;;11.40;61.80;;;;;;5002216;28;20041;-74
2021/03/23 09:29:28;;;;;;;27.98;17.40;;;11.40;62.20;;;;;;5004517;28;20042;-76
2021/03/23 09:31:54;;;;;;;23.17;16.42;;;11.10;63.70;;;;;;5004770;28;20025;-73
2021/03/23 09:34:57;;;;;;;25.55;17.38;;;11.00;64.50;;;;;;5002869;28;20042;-73
2021/03/23 09:37:49;;;;;;;25.23;17.13;;;11.20;64.30;;;;;;5006094;28;20072;-75
2021/03/23 09:40:18;;;;;;;24.65;16.52;;;11.50;63.90;;;;;;4999328;28;20046;-73
2021/03/23 09:43:05;;;;;;;25.08;15.00;;;11.90;62.70;;;;;;5000036;28;20046;-72
2021/03/23 09:46:02;;;;;;;24.75;15.27;;;12.30;62.40;;;;;;5003674;28;20138;-73
2021/03/23 09:48:48;;;;;;;19.88;12.00;;;12.40;61.80;;;;;;5010491;28;20045;-74
2021/03/23 09:51:31;;;;;;;20.92;14.02;;;12.60;60.60;;;;;;5002927;28;20058;-72
2021/03/23 09:53:57;;;;;;;23.13;13.65;;;12.60;61.70;;;;;;5005977;28;20116;-73
2021/03/23 09:56:32;;;;;;;24.48;13.52;;;12.40;61.90;;;;;;5006270;28;20438;-75
2021/03/23 09:59:10;;;;;;;18.23;10.63;;;12.10;62.90;;;;;;5003444;28;20049;-74
2021/03/23 10:01:49;;;;;;;20.33;11.70;;;12.30;61.20;;;;;;5006556;28;20033;-74
2021/03/23 10:04:28;;;;;;;22.15;13.23;;;12.20;61.70;;;;;;5003127;28;20076;-72
2021/03/23 10:06:55;;;;;;;19.67;12.82;;;12.10;62.60;;;;;;5006474;28;20022;-73
2021/03/23 10:09:28;;;;;;;21.38;13.32;;;12.00;63.30;;;;;;5005552;28;20052;-74
2021/03/23 10:11:55;;;;;;;22.77;14.85;;;12.10;63.70;;;;;;5005319;28;20034;-74
2021/03/23 10:14:30;;;;;;;23.33;14.52;;;12.30;62.00;;;;;;4999071;28;20171;-74
2021/03/23 10:17:22;;;;;;;23.02;14.60;;;12.10;62.50;;;;;;5024234;28;20425;-73
2021/03/23 10:19:51;;;;;;;23.80;14.90;;;12.10;62.60;;;;;;5007886;28;20054;-72
2021/03/23 10:22:28;;;;;;;22.25;14.57;;;12.40;62.30;;;;;;5001110;28;20084;-72
2021/03/23 10:24:55;;;;;;;27.52;14.80;;;12.40;62.40;;;;;;4999075;28;20482;-74
2021/03/23 10:27:30;;;;;;;21.02;14.40;;;12.60;62.10;;;;;;5006761;28;20048;-73
2021/03/23 10:30:37;;;;;;;20.70;14.05;;;12.70;62.00;;;;;;5003413;28;20188;-74
2021/03/23 10:33:24;;;;;;;24.38;15.35;;;12.30;62.00;;;;;;4947008;28;20114;-74
2021/03/23 10:35:59;;;;;;;21.70;15.95;;;12.30;61.70;;;;;;4996229;28;20087;-73
2021/03/23 10:38:36;;;;;;;22.73;15.02;;;12.50;62.40;;;;;;5018385;28;20027;-73
2021/03/23 10:41:17;;;;;;;23.55;16.02;;;12.80;61.10;;;;;;4998889;28;20473;-74
2021/03/23 10:43:48;;;;;;;21.58;15.27;;;12.40;60.70;;;;;;4997682;28;20041;-70
2021/03/23 10:46:35;;;;;;;19.90;15.10;;;12.00;62.50;;;;;;5000843;28;20026;-70
2021/03/23 10:49:33;;;;;;;23.83;16.65;;;11.80;63.10;;;;;;5003828;28;20041;-72
2021/03/23 10:52:24;;;;;;;22.08;15.40;;;11.90;62.70;;;;;;5000757;28;20390;-74
2021/03/23 10:55:21;;;;;;;24.13;17.00;;;12.10;64.00;;;;;;4998017;28;20504;-71
2021/03/23 10:57:46;;;;;;;27.13;17.30;;;12.40;62.40;;;;;;4996083;28;20034;-69
2021/03/23 11:00:23;;;;;;;25.40;17.58;;;12.30;62.60;;;;;;5006339;28;20520;-72
2021/03/23 11:02:48;;;;;;;24.73;17.73;;;12.30;62.90;;;;;;5004603;28;20062;-70
2021/03/23 11:05:17;;;;;;;23.00;17.17;;;12.10;63.40;;;;;;5004118;28;20544;-71
2021/03/23 11:07:53;;;;;;;27.23;18.23;;;12.30;62.30;;;;;;5002925;28;21461;-71
2021/03/23 11:10:21;;;;;;;27.73;17.65;;;12.50;61.80;;;;;;4999868;28;20141;-69
2021/03/23 11:12:47;;;;;;;26.88;17.73;;;12.30;61.30;;;;;;5003559;28;20072;-70
2021/03/23 11:15:14;;;;;;;25.67;17.38;;;12.30;60.70;;;;;;4998176;28;20062;-72
2021/03/23 11:18:00;;;;;;;24.55;17.63;;;12.20;61.50;;;;;;5003838;28;20033;-73
2021/03/23 11:20:36;;;;;;;25.30;17.70;;;12.20;61.30;;;;;;5001691;28;20164;-70
2021/03/23 11:23:05;;;;;;;25.98;18.17;;;12.10;61.90;;;;;;5001536;28;20408;-69
2021/03/23 11:25:32;;;;;;;26.45;19.00;;;12.40;61.80;;;;;;5004780;28;20029;-69
2021/03/23 11:28:02;;;;;;;26.17;17.73;;;12.70;60.70;;;;;;5003718;28;20560;-71
2021/03/23 11:30:27;;;;;;;25.23;18.90;;;13.00;60.00;;;;;;4995170;28;20421;-70
2021/03/23 11:32:53;;;;;;;27.30;19.40;;;12.90;60.60;;;;;;4996246;28;20022;-69
2021/03/23 11:35:19;;;;;;;27.65;21.08;;;12.80;61.10;;;;;;5002781;28;20469;-70
2021/03/23 11:37:45;;;;;;;27.90;19.35;;;12.60;61.00;;;;;;5004197;28;20042;-71
2021/03/23 11:40:11;;;;;;;26.05;18.38;;;12.90;60.40;;;;;;5002468;28;20473;-70
2021/03/23 11:42:41;;;;;;;29.60;19.58;;;13.00;59.30;;;;;;5003175;28;20152;-73
2021/03/23 11:45:31;;;;;;;26.83;20.13;;;13.00;59.80;;;;;;4998199;28;20345;-70
2021/03/23 11:48:02;;;;;;;28.42;19.42;;;13.10;59.20;;;;;;4997858;28;20508;-71
2021/03/23 11:50:30;;;;;;;27.63;19.67;;;13.20;59.30;;;;;;4995882;28;20030;-69
2021/03/23 11:52:57;;;;;;;27.48;19.52;;;13.60;58.70;;;;;;4999208;28;20354;-69
2021/03/23 11:55:24;;;;;;;26.85;20.00;;;13.50;58.20;;;;;;4999131;28;20169;-73
2021/03/23 11:57:51;;;;;;;27.85;19.90;;;13.50;57.70;;;;;;4997274;28;20034;-70
2021/03/23 12:00:21;;;;;;;27.77;19.45;;;13.60;57.90;;;;;;4999484;28;20053;-71
2021/03/23 12:02:47;;;;;;;27.88;20.38;;;13.60;57.90;;;;;;4996217;28;20039;-69
2021/03/23 12:05:14;;;;;;;27.73;21.02;;;13.70;57.30;;;;;;4992763;28;20622;-70
2021/03/23 12:07:59;;;;;;;28.83;20.05;;;13.70;56.90;;;;;;4997481;28;20027;-71
2021/03/23 12:10:43;;;;;;;29.52;19.85;;;13.60;56.80;;;;;;4999204;28;20050;-72
2021/03/23 12:13:21;;;;;;;28.52;20.25;;;13.20;58.30;;;;;;4999298;28;20037;-70
2021/03/23 12:15:56;;;;;;;26.60;19.77;;;13.40;58.20;;;;;;4994253;28;20156;-68
2021/03/23 12:18:21;;;;;;;;;;;13.60;58.00;;;;;;5001825;28;20025;-71
2021/03/23 12:20:55;;;;;;;28.48;20.27;;;13.30;57.10;;;;;;4995475;28;20442;-69
2021/03/23 12:23:21;;;;;;;27.92;19.33;;;13.20;57.40;;;;;;4999452;28;20069;-70
2021/03/23 12:25:47;;;;;;;26.63;19.65;;;13.10;58.80;;;;;;4996592;28;20504;-70
2021/03/23 12:28:13;;;;;;;27.65;20.80;;;13.00;59.00;;;;;;4996880;28;20146;-70
2021/03/23 12:30:38;;;;;;;26.63;19.23;;;13.10;58.70;;;;;;5000682;28;20037;-70
2021/03/23 12:33:04;;;;;;;29.38;20.77;;;13.00;59.60;;;;;;4992254;28;20107;-72
2021/03/23 12:35:30;;;;;;;28.88;20.58;;;13.10;59.00;;;;;;5001140;28;20038;-69
2021/03/23 12:37:58;;;;;;;30.58;20.60;;;13.10;58.30;;;;;;4997237;28;20034;-69
2021/03/23 12:40:25;;;;;;;28.00;20.00;;;13.10;57.90;;;;;;4997915;28;20034;-71
2021/03/23 12:42:53;;;;;;;27.27;19.83;;;13.30;58.80;;;;;;5006256;28;20022;-71
2021/03/23 12:45:24;;;;;;;24.17;19.63;;;13.40;58.60;;;;;;5002999;28;20037;-71
2021/03/23 12:47:49;;;;;;;27.15;21.42;;;13.20;58.30;;;;;;5004159;28;20040;-70
2021/03/23 12:50:15;;;;;;;25.98;19.65;;;13.50;57.70;;;;;;5003360;28;20046;-72
2021/03/23 12:52:41;;;;;;;26.02;19.08;;;13.70;57.90;;;;;;5010461;28;20062;-70
2021/03/23 12:55:14;;;;;;;24.77;19.33;;;13.80;56.00;;;;;;5006370;28;20080;-71
2021/03/23 12:57:41;;;;;;;27.30;20.27;;;13.80;56.50;;;;;;4998921;28;20065;-71
2021/03/23 13:00:11;;;;;;;28.65;20.40;;;14.10;56.90;;;;;;5001723;28;20022;-70
2021/03/23 13:02:36;;;;;;;27.40;18.58;;;14.30;55.80;;;;;;5000645;28;20035;-71